Time;durP1;ratioP1;P1;durP2;ratioP2;P2;SDS_P1;SDS_P2;PMS_P1;PMS_P2;Temp;Humidity;BMP_temperature;BMP_pressure;BME280_temperature;BME280_humidity;BME280_pressure;Samples;Min_cycle;Max_cycle;Signal;HPM_P1;HPM_P2
2023/07/10 00:01:42;;;;;;;4.97;3.93;;;28.30;52.90;;;;;;5007628;28;20474;-50
2023/07/10 00:04:16;;;;;;;4.47;4.07;;;28.30;53.00;;;;;;5012439;28;20533;-50
2023/07/10 00:06:45;;;;;;;4.20;3.43;;;28.30;53.00;;;;;;5004484;28;20468;-50
2023/07/10 00:09:14;;;;;;;4.23;3.60;;;28.30;53.10;;;;;;5004129;28;20528;-49
2023/07/10 00:11:45;;;;;;;4.10;3.80;;;28.30;53.10;;;;;;5020196;28;20473;-51
2023/07/10 00:14:21;;;;;;;4.80;4.23;;;28.30;53.10;;;;;;4994248;28;20509;-48
2023/07/10 00:16:50;;;;;;;4.97;4.50;;;28.30;53.00;;;;;;4995888;28;20580;-51
2023/07/10 00:19:19;;;;;;;5.37;4.87;;;28.30;53.10;;;;;;4989111;28;20875;-49
2023/07/10 00:21:51;;;;;;;5.10;4.60;;;28.30;53.20;;;;;;5001614;28;20508;-49
2023/07/10 00:24:20;;;;;;;4.87;4.47;;;28.30;53.20;;;;;;5003379;28;20510;-51
2023/07/10 00:26:50;;;;;;;4.53;4.20;;;28.30;53.20;;;;;;5004811;28;20468;-50
2023/07/10 00:29:31;;;;;;;3.83;3.53;;;28.30;53.20;;;;;;5011877;28;20496;-50
2023/07/10 00:32:03;;;;;;;4.37;3.97;;;28.30;53.20;;;;;;4987937;28;20465;-51
2023/07/10 00:34:32;;;;;;;4.40;3.90;;;28.30;53.20;;;;;;5011162;28;20557;-49
2023/07/10 00:37:00;;;;;;;4.30;3.90;;;28.30;53.10;;;;;;5008371;28;20465;-50
2023/07/10 00:39:31;;;;;;;5.00;4.37;;;28.30;53.10;;;;;;5011103;28;20458;-49
2023/07/10 00:42:03;;;;;;;4.30;4.00;;;28.30;53.10;;;;;;5014077;28;20557;-50
2023/07/10 00:44:36;;;;;;;4.83;4.43;;;28.20;53.00;;;;;;4994523;28;20446;-49
2023/07/10 00:47:10;;;;;;;4.70;4.30;;;28.20;53.20;;;;;;5007759;28;20501;-51
2023/07/10 00:49:45;;;;;;;3.97;3.57;;;28.20;53.10;;;;;;4987387;28;20458;-52
2023/07/10 00:52:17;;;;;;;4.73;4.23;;;28.20;53.10;;;;;;4996212;28;20461;-49
2023/07/10 00:54:49;;;;;;;5.00;4.50;;;28.20;53.30;;;;;;4998596;28;20475;-49
2023/07/10 00:57:22;;;;;;;4.60;4.20;;;28.20;53.20;;;;;;4978218;28;20470;-48
2023/07/10 00:59:52;;;;;;;4.93;4.00;;;28.20;54.40;;;;;;4979380;28;20530;-50
2023/07/10 01:02:24;;;;;;;7.90;4.10;;;28.20;53.20;;;;;;4967773;28;20525;-48
2023/07/10 01:05:00;;;;;;;5.57;5.07;;;28.20;53.20;;;;;;4950745;28;20447;-51
2023/07/10 01:07:34;;;;;;;4.77;4.23;;;28.20;53.20;;;;;;4968744;28;20474;-50
2023/07/10 01:10:08;;;;;;;4.20;3.80;;;28.20;53.20;;;;;;4975199;28;20466;-49
2023/07/10 01:12:39;;;;;;;3.70;3.40;;;28.20;54.40;;;;;;4994461;28;20478;-50
2023/07/10 01:15:09;;;;;;;3.43;3.20;;;28.20;53.20;;;;;;4994131;28;20526;-49
2023/07/10 01:17:39;;;;;;;4.10;3.63;;;28.10;53.10;;;;;;4986414;28;20482;-49
2023/07/10 01:20:34;;;;;;;3.80;3.50;;;28.20;53.20;;;;;;4983508;28;21023;-52
2023/07/10 01:23:05;;;;;;;5.20;4.20;;;28.20;53.20;;;;;;4987950;28;20937;-49
2023/07/10 01:25:40;;;;;;;4.13;3.73;;;28.20;53.30;;;;;;4989528;28;20553;-50
2023/07/10 01:28:13;;;;;;;4.37;3.97;;;28.10;53.20;;;;;;4978028;28;20433;-50
2023/07/10 01:30:44;;;;;;;4.23;3.83;;;28.10;53.10;;;;;;5002609;28;20476;-49
2023/07/10 01:33:18;;;;;;;5.33;4.83;;;28.10;53.20;;;;;;4993795;28;20445;-49
2023/07/10 01:35:50;;;;;;;4.70;4.00;;;28.10;53.20;;;;;;4978044;28;20481;-50
2023/07/10 01:38:20;;;;;;;4.07;3.77;;;28.10;53.20;;;;;;4994491;28;20456;-49
2023/07/10 01:40:54;;;;;;;5.00;3.80;;;28.10;53.20;;;;;;4989641;28;20462;-50
2023/07/10 01:43:23;;;;;;;4.10;3.80;;;28.10;53.20;;;;;;5000053;28;20499;-50
2023/07/10 01:45:51;;;;;;;4.17;3.77;;;28.10;53.20;;;;;;4993303;28;20967;-49
2023/07/10 01:48:23;;;;;;;4.73;3.90;;;28.10;53.20;;;;;;4991192;28;20446;-50
2023/07/10 01:50:52;;;;;;;4.37;3.97;;;28.10;53.20;;;;;;4995322;28;20511;-51
2023/07/10 01:53:22;;;;;;;4.40;4.00;;;28.10;54.40;;;;;;4993934;28;20508;-50
2023/07/10 01:55:51;;;;;;;3.70;3.10;;;28.10;53.20;;;;;;4966789;28;20549;-49
2023/07/10 01:58:21;;;;;;;3.90;3.60;;;28.10;53.20;;;;;;4972844;28;20453;-49
2023/07/10 02:00:50;;;;;;;4.07;3.67;;;28.10;53.20;;;;;;4958339;28;20458;-51
2023/07/10 02:03:18;;;;;;;4.57;4.17;;;28.10;53.20;;;;;;4980118;28;20820;-50
2023/07/10 02:05:47;;;;;;;3.60;3.30;;;28.10;53.20;;;;;;4979885;28;20496;-49
2023/07/10 02:08:15;;;;;;;3.37;3.07;;;28.10;53.30;;;;;;5009037;28;20454;-50
2023/07/10 02:10:45;;;;;;;3.47;3.17;;;28.00;53.40;;;;;;5016784;28;20988;-51
2023/07/10 02:13:14;;;;;;;3.70;3.40;;;28.00;53.20;;;;;;4999329;28;20451;-52
2023/07/10 02:15:43;;;;;;;4.07;3.67;;;28.00;53.20;;;;;;5007678;28;20998;-49
2023/07/10 02:18:11;;;;;;;3.33;3.03;;;28.00;53.20;;;;;;4986896;28;20482;-51
2023/07/10 02:20:41;;;;;;;4.00;3.63;;;28.00;53.20;;;;;;5002462;28;20460;-51
2023/07/10 02:23:10;;;;;;;3.87;3.40;;;28.00;53.20;;;;;;4988850;28;20446;-52
2023/07/10 02:25:40;;;;;;;5.23;3.60;;;28.00;53.20;;;;;;5014739;28;20529;-51
2023/07/10 02:28:11;;;;;;;4.40;4.00;;;28.00;53.20;;;;;;5022258;28;20477;-51
2023/07/10 02:30:40;;;;;;;4.90;4.40;;;28.00;53.20;;;;;;5001539;28;20776;-50
2023/07/10 02:33:09;;;;;;;3.50;3.20;;;28.00;53.20;;;;;;5005878;28;20586;-50
2023/07/10 02:35:37;;;;;;;3.87;3.00;;;28.00;54.50;;;;;;4998437;28;20439;-49
2023/07/10 02:38:06;;;;;;;3.67;3.37;;;28.00;53.20;;;;;;4988321;28;20501;-49
2023/07/10 02:40:35;;;;;;;4.30;3.60;;;28.00;53.20;;;;;;5008974;28;20929;-50
2023/07/10 02:43:03;;;;;;;3.63;3.33;;;28.00;53.30;;;;;;5002786;28;20454;-49
2023/07/10 02:45:35;;;;;;;3.70;3.40;;;28.00;53.20;;;;;;5003419;28;20452;-49
2023/07/10 02:48:04;;;;;;;3.63;3.33;;;28.00;53.20;;;;;;5007196;28;20473;-49
2023/07/10 02:50:34;;;;;;;5.00;3.80;;;28.00;53.20;;;;;;5018343;28;20972;-49
2023/07/10 02:53:02;;;;;;;4.10;3.70;;;28.00;53.20;;;;;;4998642;28;20466;-49
2023/07/10 02:55:31;;;;;;;4.20;3.40;;;27.90;53.10;;;;;;4995507;28;21039;-50
2023/07/10 02:58:00;;;;;;;3.20;2.90;;;27.90;53.10;;;;;;5006837;28;20540;-50
2023/07/10 03:00:29;;;;;;;3.67;3.37;;;27.90;53.20;;;;;;5011756;28;20497;-51
2023/07/10 03:02:59;;;;;;;3.63;3.30;;;27.90;53.20;;;;;;4995227;28;20494;-49
2023/07/10 03:05:28;;;;;;;3.73;3.33;;;27.90;53.10;;;;;;5006071;28;20434;-50
2023/07/10 03:07:57;;;;;;;3.80;3.50;;;27.90;53.00;;;;;;5006732;28;20522;-52
2023/07/10 03:10:26;;;;;;;6.00;4.10;;;27.90;53.10;;;;;;5005423;28;20908;-48
2023/07/10 03:12:54;;;;;;;3.67;3.30;;;27.90;53.00;;;;;;4999052;28;20479;-51
2023/07/10 03:15:23;;;;;;;3.70;3.40;;;27.90;53.00;;;;;;4996325;28;20852;-50
2023/07/10 03:17:52;;;;;;;3.80;3.50;;;27.90;52.90;;;;;;4995664;28;20474;-49
2023/07/10 03:20:23;;;;;;;3.40;3.10;;;27.90;53.10;;;;;;4980442;28;21073;-52
2023/07/10 03:22:52;;;;;;;3.87;3.47;;;27.90;52.90;;;;;;4967051;28;20611;-50
2023/07/10 03:25:20;;;;;;;4.53;3.50;;;27.90;53.10;;;;;;4977304;28;20454;-50
2023/07/10 03:27:49;;;;;;;3.53;3.23;;;27.90;52.90;;;;;;4981528;28;20570;-50
2023/07/10 03:30:21;;;;;;;5.10;3.60;;;27.80;52.90;;;;;;4971323;28;20553;-50
2023/07/10 03:32:51;;;;;;;3.60;3.03;;;27.80;52.80;;;;;;4965170;28;20839;-50
2023/07/10 03:35:19;;;;;;;3.90;3.60;;;27.80;52.90;;;;;;4969958;28;20450;-51
2023/07/10 03:37:49;;;;;;;3.77;3.37;;;27.80;52.70;;;;;;4992672;28;20478;-49
2023/07/10 03:40:18;;;;;;;4.47;3.47;;;27.80;52.70;;;;;;4994791;28;20520;-50
2023/07/10 03:42:47;;;;;;;4.40;2.73;;;27.80;52.70;;;;;;5000110;28;20463;-49
2023/07/10 03:45:15;;;;;;;4.00;3.10;;;27.80;52.70;;;;;;4984124;28;20878;-50
2023/07/10 03:47:44;;;;;;;5.00;4.13;;;27.80;52.70;;;;;;4953194;28;20538;-51
2023/07/10 03:50:14;;;;;;;3.13;2.83;;;27.80;52.70;;;;;;4978606;28;20530;-49
2023/07/10 03:52:43;;;;;;;3.90;3.60;;;27.80;52.70;;;;;;4957784;28;20480;-49
2023/07/10 03:55:13;;;;;;;3.67;3.37;;;27.80;52.70;;;;;;4977136;28;20965;-49
2023/07/10 03:57:41;;;;;;;2.90;2.67;;;27.80;52.70;;;;;;4987016;28;21045;-49
2023/07/10 04:00:11;;;;;;;3.83;3.53;;;27.80;52.80;;;;;;4986365;28;20462;-52
2023/07/10 04:02:39;;;;;;;4.13;3.73;;;27.80;52.70;;;;;;4987054;28;20488;-49
2023/07/10 04:05:08;;;;;;;3.20;2.97;;;27.80;52.70;;;;;;4995334;28;20517;-50
2023/07/10 04:07:37;;;;;;;3.93;2.77;;;27.70;52.60;;;;;;4984009;28;20569;-49
2023/07/10 04:10:06;;;;;;;3.50;3.20;;;27.70;52.70;;;;;;4990997;28;20616;-50
2023/07/10 04:12:40;;;;;;;3.13;2.87;;;27.70;52.70;;;;;;4996199;28;20850;-49
2023/07/10 04:15:09;;;;;;;2.93;2.73;;;27.70;52.70;;;;;;4989614;28;20447;-51
2023/07/10 04:17:38;;;;;;;4.10;3.73;;;27.70;52.50;;;;;;4986664;28;20489;-49
2023/07/10 04:20:08;;;;;;;5.10;3.10;;;27.70;52.50;;;;;;4992477;28;20521;-49
2023/07/10 04:22:37;;;;;;;4.13;3.13;;;27.70;52.70;;;;;;4955511;28;20463;-50
2023/07/10 04:25:10;;;;;;;2.83;2.63;;;27.70;52.70;;;;;;4967048;28;20453;-50
2023/07/10 04:27:40;;;;;;;5.40;3.47;;;27.70;52.70;;;;;;4987203;28;20466;-50
2023/07/10 04:30:09;;;;;;;3.73;3.43;;;27.70;52.50;;;;;;4991063;28;20798;-49
2023/07/10 04:32:38;;;;;;;3.90;3.50;;;27.70;52.50;;;;;;4968997;28;20478;-49
2023/07/10 04:35:07;;;;;;;3.47;3.10;;;27.70;52.40;;;;;;4994501;28;20950;-51
2023/07/10 04:37:36;;;;;;;3.20;2.50;;;27.70;52.50;;;;;;4985930;28;21015;-50
2023/07/10 04:40:05;;;;;;;4.03;3.17;;;27.70;52.40;;;;;;4987360;28;20475;-50
2023/07/10 04:42:34;;;;;;;3.13;2.70;;;27.60;52.20;;;;;;4991494;28;20513;-50
2023/07/10 04:45:05;;;;;;;3.90;3.60;;;27.60;52.20;;;;;;4994999;28;20508;-51
2023/07/10 04:47:34;;;;;;;6.20;3.20;;;27.60;52.10;;;;;;4988427;28;20475;-50
2023/07/10 04:50:02;;;;;;;4.90;3.20;;;27.60;52.30;;;;;;4978752;28;20548;-49
2023/07/10 04:52:31;;;;;;;4.57;3.40;;;27.60;52.40;;;;;;4973434;28;20474;-51
2023/07/10 04:55:00;;;;;;;3.43;2.70;;;27.60;52.20;;;;;;4969358;28;20451;-48
2023/07/10 04:57:28;;;;;;;3.63;3.33;;;27.60;52.40;;;;;;4971899;28;20508;-48
2023/07/10 04:59:57;;;;;;;5.27;3.33;;;27.60;52.40;;;;;;4996210;28;20459;-49
2023/07/10 05:02:27;;;;;;;4.07;3.70;;;27.60;52.20;;;;;;4981091;28;20563;-49
2023/07/10 05:04:56;;;;;;;3.20;2.90;;;27.60;52.20;;;;;;4969250;28;20497;-50
2023/07/10 05:07:24;;;;;;;6.67;3.80;;;27.60;52.40;;;;;;4972549;28;20486;-49
2023/07/10 05:09:53;;;;;;;3.50;3.20;;;27.60;52.20;;;;;;4969446;28;20501;-50
2023/07/10 05:12:21;;;;;;;5.50;3.70;;;27.60;52.20;;;;;;4983109;28;20494;-50
2023/07/10 05:14:50;;;;;;;3.13;2.80;;;27.60;52.20;;;;;;4961386;28;20430;-49
2023/07/10 05:17:19;;;;;;;3.50;2.93;;;27.60;52.20;;;;;;4989271;28;20745;-49
2023/07/10 05:19:49;;;;;;;5.77;3.90;;;27.60;52.20;;;;;;4952167;28;20450;-49
2023/07/10 05:22:18;;;;;;;3.57;3.27;;;27.60;52.30;;;;;;4987912;28;20495;-52
2023/07/10 05:24:47;;;;;;;3.53;3.23;;;27.60;52.20;;;;;;4985425;28;20961;-50
2023/07/10 05:27:15;;;;;;;4.97;3.00;;;27.60;52.20;;;;;;4969855;28;20657;-48
2023/07/10 05:29:44;;;;;;;3.70;3.33;;;27.60;52.10;;;;;;4953235;28;20431;-49
2023/07/10 05:32:13;;;;;;;3.30;3.00;;;27.60;52.20;;;;;;4965336;28;21091;-49
2023/07/10 05:34:41;;;;;;;4.40;3.23;;;27.50;52.10;;;;;;4959781;28;20435;-50
2023/07/10 05:37:12;;;;;;;4.47;3.27;;;27.60;52.30;;;;;;4994950;28;20983;-50
2023/07/10 05:39:40;;;;;;;3.83;3.10;;;27.60;52.10;;;;;;4989337;28;20459;-50
2023/07/10 05:42:09;;;;;;;4.83;3.33;;;27.60;52.20;;;;;;4993068;28;20476;-50
2023/07/10 05:44:37;;;;;;;4.00;3.33;;;27.50;52.10;;;;;;4990316;28;20511;-49
2023/07/10 05:47:06;;;;;;;4.33;3.83;;;27.50;52.10;;;;;;4981962;28;20479;-49
2023/07/10 05:49:35;;;;;;;4.43;4.03;;;27.50;52.00;;;;;;4981052;28;20447;-51
2023/07/10 05:52:04;;;;;;;6.13;3.77;;;27.50;52.00;;;;;;4991117;28;20489;-49
2023/07/10 05:54:34;;;;;;;5.00;4.57;;;27.50;52.10;;;;;;4989031;28;20481;-49
2023/07/10 05:57:03;;;;;;;3.70;3.40;;;27.50;51.80;;;;;;4982457;28;20474;-48
2023/07/10 05:59:32;;;;;;;3.63;3.33;;;27.50;52.00;;;;;;4956365;28;20541;-49
2023/07/10 06:02:00;;;;;;;4.27;3.10;;;27.50;52.10;;;;;;4965004;28;20478;-51
2023/07/10 06:04:29;;;;;;;3.70;3.40;;;27.50;52.10;;;;;;4952272;28;20509;-51
2023/07/10 06:06:58;;;;;;;4.40;3.57;;;27.50;52.30;;;;;;4981779;28;20487;-51
2023/07/10 06:09:27;;;;;;;3.80;3.50;;;27.50;52.20;;;;;;4962606;28;20454;-50
2023/07/10 06:11:57;;;;;;;4.23;3.40;;;27.50;52.20;;;;;;4978891;28;20496;-50
2023/07/10 06:14:25;;;;;;;3.27;2.93;;;27.50;52.10;;;;;;4969002;28;20897;-49
2023/07/10 06:16:54;;;;;;;3.70;2.73;;;27.50;52.20;;;;;;4990574;28;20893;-49
2023/07/10 06:19:23;;;;;;;4.50;3.50;;;;;;;;;;4968670;28;20533;-50
2023/07/10 06:22:05;;;;;;;4.10;3.40;;;;;;;;;;4961715;28;20476;-49
2023/07/10 06:24:33;;;;;;;2.90;2.70;;;27.50;68.90;;;;;;4981510;28;20940;-49
2023/07/10 06:27:05;;;;;;;3.23;2.83;;;27.50;54.50;;;;;;4968967;28;20917;-50
2023/07/10 06:29:34;;;;;;;6.87;3.80;;;27.40;52.70;;;;;;4982355;28;20435;-50
2023/07/10 06:32:06;;;;;;;3.80;3.40;;;27.50;52.10;;;;;;4961191;28;20562;-49
2023/07/10 06:34:34;;;;;;;4.67;3.43;;;27.50;51.90;;;;;;4981635;28;20557;-49
2023/07/10 06:37:03;;;;;;;3.53;3.23;;;27.50;52.00;;;;;;4978450;28;20463;-50
2023/07/10 06:39:32;;;;;;;3.40;3.10;;;27.50;52.00;;;;;;4982035;28;20802;-49
2023/07/10 06:42:01;;;;;;;4.40;3.20;;;27.40;52.10;;;;;;4961722;28;20482;-49
2023/07/10 06:44:33;;;;;;;3.43;3.13;;;27.40;52.00;;;;;;4978487;28;20493;-49
2023/07/10 06:47:02;;;;;;;3.20;2.90;;;27.40;52.00;;;;;;4970238;28;20474;-50
2023/07/10 06:49:30;;;;;;;3.03;2.83;;;27.40;52.00;;;;;;4987750;28;20505;-49
2023/07/10 06:51:59;;;;;;;3.53;2.57;;;27.40;51.90;;;;;;4989313;28;20528;-50
2023/07/10 06:54:29;;;;;;;3.53;3.23;;;27.40;52.00;;;;;;4954224;28;20473;-51
2023/07/10 06:56:58;;;;;;;3.10;2.80;;;27.40;51.90;;;;;;4966332;28;20560;-49
2023/07/10 06:59:27;;;;;;;3.73;2.90;;;27.40;51.90;;;;;;4987698;28;20434;-51
2023/07/10 07:01:57;;;;;;;2.80;2.60;;;27.40;52.00;;;;;;4978190;28;20585;-50
2023/07/10 07:04:26;;;;;;;3.10;2.27;;;27.40;51.80;;;;;;4977171;28;20464;-50
2023/07/10 07:06:55;;;;;;;2.37;2.17;;;27.40;51.80;;;;;;4986741;28;20470;-50
2023/07/10 07:09:24;;;;;;;3.03;2.80;;;27.40;51.70;;;;;;4976934;28;20549;-49
2023/07/10 07:11:52;;;;;;;3.57;2.60;;;27.40;51.60;;;;;;4987094;28;20470;-50
2023/07/10 07:14:21;;;;;;;3.30;2.30;;;27.40;51.80;;;;;;4970970;28;20466;-49
2023/07/10 07:16:50;;;;;;;3.60;2.37;;;27.40;51.70;;;;;;4984939;28;21039;-49
2023/07/10 07:19:20;;;;;;;2.60;2.40;;;27.40;51.70;;;;;;4960419;28;20476;-50
2023/07/10 07:21:49;;;;;;;3.43;2.13;;;27.40;51.70;;;;;;4973013;28;20550;-52
2023/07/10 07:24:18;;;;;;;2.40;2.20;;;27.40;51.60;;;;;;4969002;28;20454;-51
2023/07/10 07:26:47;;;;;;;4.70;2.70;;;27.40;52.10;;;;;;4984388;28;20470;-49
2023/07/10 07:29:19;;;;;;;3.47;2.70;;;27.40;50.20;;;;;;4985308;28;20254;-51
2023/07/10 07:31:47;;;;;;;3.33;2.77;;;27.40;50.50;;;;;;4984088;28;20521;-49
2023/07/10 07:34:16;;;;;;;2.80;2.33;;;27.40;50.50;;;;;;4989600;28;20812;-51
2023/07/10 07:36:47;;;;;;;2.73;2.43;;;27.40;50.40;;;;;;4968078;28;20482;-49
2023/07/10 07:39:16;;;;;;;3.30;2.80;;;27.40;50.50;;;;;;4979793;28;20490;-50
2023/07/10 07:41:45;;;;;;;3.47;2.50;;;27.40;50.50;;;;;;4969083;28;20473;-51
2023/07/10 07:44:14;;;;;;;3.10;2.40;;;27.40;50.60;;;;;;4992803;28;21000;-49
2023/07/10 07:46:42;;;;;;;2.53;2.33;;;27.40;50.70;;;;;;4984251;28;20918;-51
2023/07/10 07:49:12;;;;;;;2.63;2.43;;;27.40;50.80;;;;;;4988889;28;20529;-50
2023/07/10 07:51:40;;;;;;;2.73;2.33;;;27.40;50.70;;;;;;4973359;28;20478;-51
2023/07/10 07:54:13;;;;;;;3.23;2.53;;;27.40;50.80;;;;;;4984762;28;20537;-50
2023/07/10 07:56:41;;;;;;;2.37;2.17;;;27.40;50.70;;;;;;4985899;28;20473;-49
2023/07/10 07:59:11;;;;;;;2.47;2.27;;;27.40;50.70;;;;;;4970667;28;20435;-50
2023/07/10 08:01:39;;;;;;;2.90;2.40;;;27.40;50.80;;;;;;4984296;28;20473;-50
2023/07/10 08:04:08;;;;;;;2.23;1.80;;;27.40;50.80;;;;;;4962129;28;20733;-49
2023/07/10 08:06:37;;;;;;;2.40;2.20;;;27.40;50.70;;;;;;4966315;28;20471;-50
2023/07/10 08:09:06;;;;;;;2.83;2.60;;;27.40;50.80;;;;;;4970490;28;20869;-49
2023/07/10 08:11:37;;;;;;;2.77;2.57;;;27.40;50.80;;;;;;4972409;28;20485;-49
2023/07/10 08:14:06;;;;;;;2.53;2.33;;;27.40;50.80;;;;;;4965228;28;20983;-51
2023/07/10 08:16:35;;;;;;;2.73;2.10;;;27.40;50.80;;;;;;4949187;28;21060;-49
2023/07/10 08:19:05;;;;;;;2.00;1.80;;;27.30;50.80;;;;;;4982531;28;20470;-52
2023/07/10 08:21:34;;;;;;;2.07;1.80;;;27.30;50.70;;;;;;4991784;28;20461;-50
2023/07/10 08:24:03;;;;;;;2.37;2.17;;;27.30;50.70;;;;;;4961843;28;20451;-50
2023/07/10 08:26:31;;;;;;;2.63;2.00;;;27.30;50.70;;;;;;4971624;28;20445;-49
2023/07/10 08:29:23;;;;;;;2.73;2.40;;;27.30;50.80;;;;;;4974781;28;20439;-50
2023/07/10 08:31:54;;;;;;;3.57;1.73;;;27.30;50.60;;;;;;4988150;28;20752;-50
2023/07/10 08:34:25;;;;;;;2.33;2.13;;;27.30;50.70;;;;;;4989871;28;20979;-50
2023/07/10 08:36:54;;;;;;;2.60;2.40;;;27.30;50.70;;;;;;4968712;28;21038;-48
2023/07/10 08:39:24;;;;;;;3.10;2.40;;;27.30;50.80;;;;;;4967339;28;20458;-51
2023/07/10 08:41:56;;;;;;;2.20;2.00;;;27.30;50.70;;;;;;4952689;28;20560;-49
2023/07/10 08:44:32;;;;;;;3.10;2.50;;;27.30;50.60;;;;;;4974289;28;20577;-51
2023/07/10 08:47:05;;;;;;;2.30;2.10;;;27.30;50.70;;;;;;4975577;28;20471;-48
2023/07/10 08:49:37;;;;;;;2.30;2.10;;;27.30;50.70;;;;;;4980675;28;20462;-50
2023/07/10 08:52:09;;;;;;;1.93;1.73;;;27.30;50.70;;;;;;4985359;28;20505;-49
2023/07/10 08:54:38;;;;;;;3.37;2.40;;;27.30;50.50;;;;;;4966585;28;20501;-50
2023/07/10 08:57:18;;;;;;;2.20;1.80;;;27.30;50.60;;;;;;4984669;28;20510;-49
2023/07/10 08:59:54;;;;;;;2.27;2.07;;;27.30;50.60;;;;;;4983944;28;20537;-50
2023/07/10 09:02:32;;;;;;;2.67;2.47;;;27.30;50.60;;;;;;4984003;28;20474;-51
2023/07/10 09:05:03;;;;;;;2.77;2.10;;;27.30;50.50;;;;;;4979745;28;20804;-52
2023/07/10 09:07:39;;;;;;;2.43;2.03;;;27.30;50.50;;;;;;4965796;28;20474;-48
2023/07/10 09:10:13;;;;;;;2.40;2.20;;;27.30;50.50;;;;;;4984142;28;20508;-51
2023/07/10 09:12:48;;;;;;;2.23;2.00;;;27.30;50.40;;;;;;4968508;28;20466;-49
2023/07/10 09:15:25;;;;;;;2.93;1.63;;;27.30;50.50;;;;;;4985324;28;20999;-50
2023/07/10 09:18:05;;;;;;;2.70;2.10;;;27.30;50.40;;;;;;4982017;28;21138;-51
2023/07/10 09:20:36;;;;;;;2.17;1.97;;;27.30;50.50;;;;;;4984516;28;20481;-49
2023/07/10 09:23:14;;;;;;;2.70;2.13;;;27.30;50.50;;;;;;4973363;28;20481;-49
2023/07/10 09:25:44;;;;;;;2.07;1.87;;;27.30;50.40;;;;;;4988529;28;20715;-50
2023/07/10 09:28:13;;;;;;;2.93;2.30;;;27.30;50.30;;;;;;4970711;28;20445;-49
2023/07/10 09:30:52;;;;;;;2.47;2.27;;;27.30;50.40;;;;;;4987730;28;20485;-50
2023/07/10 09:33:22;;;;;;;2.03;1.83;;;27.30;50.30;;;;;;4983750;28;20968;-49
2023/07/10 09:35:50;;;;;;;2.13;1.93;;;27.30;50.40;;;;;;4988581;28;21196;-50
2023/07/10 09:38:20;;;;;;;2.47;2.13;;;27.30;50.50;;;;;;4983664;28;20794;-48
2023/07/10 09:40:51;;;;;;;1.97;1.77;;;27.30;50.50;;;;;;4974858;28;20497;-50
2023/07/10 09:43:23;;;;;;;2.83;1.80;;;27.30;50.40;;;;;;4989693;28;20446;-50
2023/07/10 09:45:58;;;;;;;2.40;2.00;;;27.30;50.40;;;;;;4973945;28;20453;-50
2023/07/10 09:48:34;;;;;;;1.90;1.70;;;27.30;50.50;;;;;;4993505;28;20461;-49
2023/07/10 09:51:06;;;;;;;2.73;2.07;;;27.30;50.40;;;;;;4993262;28;21056;-49
2023/07/10 09:53:37;;;;;;;3.30;2.40;;;27.20;50.40;;;;;;4989413;28;20452;-51
2023/07/10 09:56:06;;;;;;;2.00;1.80;;;27.30;50.40;;;;;;4987750;28;20465;-51
2023/07/10 09:58:46;;;;;;;2.10;1.90;;;27.30;50.40;;;;;;4972548;28;20445;-49
2023/07/10 10:01:16;;;;;;;2.23;1.93;;;27.30;50.40;;;;;;4989353;28;20546;-49
2023/07/10 10:03:45;;;;;;;2.40;2.20;;;27.30;50.20;;;;;;4991708;28;20457;-50
2023/07/10 10:06:21;;;;;;;1.90;1.80;;;27.30;50.20;;;;;;4998200;28;20475;-50
2023/07/10 10:08:50;;;;;;;1.73;1.60;;;27.30;50.00;;;;;;4977696;28;20454;-51
2023/07/10 10:11:32;;;;;;;2.10;1.80;;;27.30;50.20;;;;;;4992773;28;20457;-50
2023/07/10 10:14:03;;;;;;;2.30;2.10;;;27.30;50.10;;;;;;4992246;28;20467;-52
2023/07/10 10:16:37;;;;;;;2.30;1.60;;;27.30;50.20;;;;;;4997462;28;20497;-49
2023/07/10 10:19:12;;;;;;;2.50;1.70;;;27.30;50.40;;;;;;4987673;28;20510;-51
2023/07/10 10:21:41;;;;;;;2.17;1.93;;;27.30;49.40;;;;;;4992467;28;20222;-50
2023/07/10 10:24:12;;;;;;;3.13;1.73;;;27.30;49.70;;;;;;5008239;28;20459;-50
2023/07/10 10:27:00;;;;;;;5.37;2.30;;;27.30;49.70;;;;;;4996897;28;20917;-50
2023/07/10 10:29:51;;;;;;;2.00;1.80;;;27.30;50.00;;;;;;4996115;28;20944;-50
2023/07/10 10:32:28;;;;;;;1.83;1.73;;;27.30;49.50;;;;;;5009154;28;20531;-49
2023/07/10 10:35:09;;;;;;;1.97;1.77;;;27.30;49.60;;;;;;5007361;28;20959;-51
2023/07/10 10:37:55;;;;;;;2.07;1.87;;;27.30;49.90;;;;;;5002812;28;21007;-49
2023/07/10 10:40:36;;;;;;;2.17;1.97;;;27.30;50.00;;;;;;5004003;28;20476;-51
2023/07/10 10:43:34;;;;;;;2.40;2.00;;;27.30;50.00;;;;;;4993093;28;20480;-53
2023/07/10 10:46:11;;;;;;;2.37;1.50;;;27.30;50.00;;;;;;5000917;28;20449;-50
2023/07/10 10:48:48;;;;;;;2.00;1.80;;;27.30;49.70;;;;;;4992453;28;20456;-51
2023/07/10 10:51:29;;;;;;;2.33;1.97;;;27.30;50.00;;;;;;5006862;28;20481;-50
2023/07/10 10:54:08;;;;;;;2.30;1.73;;;27.30;50.00;;;;;;5010149;28;20453;-52
2023/07/10 10:57:02;;;;;;;3.20;1.90;;;27.30;49.90;;;;;;5007145;28;20469;-50
2023/07/10 10:59:43;;;;;;;2.00;1.80;;;27.30;49.80;;;;;;5012405;28;20966;-50
2023/07/10 11:02:29;;;;;;;1.70;1.60;;;27.30;49.90;;;;;;4996289;28;20485;-49
2023/07/10 11:05:09;;;;;;;1.70;1.60;;;27.30;50.00;;;;;;4989664;28;20452;-49
2023/07/10 11:07:40;;;;;;;3.03;1.90;;;27.30;50.20;;;;;;4994728;28;20476;-48
2023/07/10 11:10:15;;;;;;;2.73;2.33;;;27.30;48.30;;;;;;5007042;28;20835;-48
2023/07/10 11:12:44;;;;;;;2.97;1.67;;;27.40;47.80;;;;;;5001255;28;20479;-47
2023/07/10 11:15:17;;;;;;;2.07;1.77;;;27.40;47.20;;;;;;4996696;28;20455;-48
2023/07/10 11:17:49;;;;;;;2.30;2.00;;;27.40;46.40;;;;;;5003421;28;20491;-50
2023/07/10 11:20:20;;;;;;;3.20;2.00;;;27.40;46.00;;;;;;4996556;28;20481;-49
2023/07/10 11:22:51;;;;;;;1.87;1.67;;;27.40;46.90;;;;;;4994132;28;20476;-49
2023/07/10 11:25:34;;;;;;;2.40;2.00;;;27.30;47.30;;;;;;5001634;28;20463;-52
2023/07/10 11:28:04;;;;;;;2.17;1.90;;;27.30;47.30;;;;;;4995394;28;20476;-49
2023/07/10 11:30:35;;;;;;;1.87;1.70;;;27.30;47.60;;;;;;4997865;28;20469;-52
2023/07/10 11:33:15;;;;;;;3.00;1.80;;;27.30;48.00;;;;;;4995083;28;20470;-50
2023/07/10 11:36:13;;;;;;;2.67;1.80;;;27.30;48.20;;;;;;5010728;28;20461;-49
2023/07/10 11:38:59;;;;;;;2.70;2.20;;;27.30;48.10;;;;;;4992744;28;20452;-52
2023/07/10 11:41:30;;;;;;;2.53;1.73;;;27.30;48.30;;;;;;4997366;28;20893;-49
2023/07/10 11:44:19;;;;;;;2.03;1.83;;;27.30;48.40;;;;;;4991498;28;20442;-51
2023/07/10 11:47:02;;;;;;;3.37;1.87;;;27.30;47.40;;;;;;4993386;28;21061;-49
2023/07/10 11:49:46;;;;;;;2.57;1.90;;;27.30;47.80;;;;;;5012862;28;20438;-49
2023/07/10 11:52:33;;;;;;;1.83;1.67;;;27.30;48.10;;;;;;5000276;28;20476;-51
2023/07/10 11:55:07;;;;;;;2.30;1.40;;;27.30;48.50;;;;;;5006953;28;20500;-49
2023/07/10 11:57:37;;;;;;;1.80;1.60;;;27.30;48.60;;;;;;5002676;28;20487;-49
2023/07/10 12:00:20;;;;;;;2.23;1.90;;;27.30;48.60;;;;;;5005696;28;20468;-48
2023/07/10 12:02:54;;;;;;;2.97;1.90;;;27.30;48.50;;;;;;5005653;28;20474;-48
2023/07/10 12:05:25;;;;;;;1.80;1.57;;;27.30;48.40;;;;;;5011178;28;20456;-51
2023/07/10 12:07:59;;;;;;;2.00;1.67;;;27.30;48.60;;;;;;5002542;28;20477;-49
2023/07/10 12:10:37;;;;;;;1.87;1.67;;;27.40;48.50;;;;;;4996997;28;20473;-50
2023/07/10 12:13:20;;;;;;;2.00;1.83;;;27.40;48.60;;;;;;4997231;28;20454;-49
2023/07/10 12:15:50;;;;;;;2.33;2.10;;;27.40;48.30;;;;;;5006900;28;20453;-50
2023/07/10 12:18:25;;;;;;;4.17;1.97;;;27.40;47.80;;;;;;5006329;28;20498;-51
2023/07/10 12:20:55;;;;;;;2.90;2.17;;;27.40;47.90;;;;;;4993682;28;20464;-49
2023/07/10 12:23:24;;;;;;;1.53;1.43;;;27.40;48.40;;;;;;4995169;28;20441;-50
2023/07/10 12:25:55;;;;;;;2.80;2.17;;;27.40;48.50;;;;;;5012560;28;20452;-50
2023/07/10 12:28:25;;;;;;;4.70;2.30;;;27.40;49.60;;;;;;4995218;28;20433;-50
2023/07/10 12:30:58;;;;;;;1.90;1.73;;;27.40;48.20;;;;;;4994279;28;20519;-49
2023/07/10 12:33:34;;;;;;;3.33;1.83;;;27.40;48.20;;;;;;5000015;28;20815;-50
2023/07/10 12:36:05;;;;;;;3.20;1.87;;;27.40;48.10;;;;;;5005758;28;20441;-49
2023/07/10 12:38:37;;;;;;;4.30;1.67;;;27.40;47.80;;;;;;5001517;28;20454;-53
2023/07/10 12:41:07;;;;;;;3.27;1.60;;;27.40;47.20;;;;;;5000793;28;20477;-50
2023/07/10 12:43:39;;;;;;;1.90;1.63;;;27.50;47.80;;;;;;5008584;28;21029;-48
2023/07/10 12:46:16;;;;;;;1.73;1.50;;;27.50;48.10;;;;;;5009777;28;20445;-51
2023/07/10 12:48:53;;;;;;;1.60;1.50;;;27.50;48.20;;;;;;4990576;28;20457;-51
2023/07/10 12:51:27;;;;;;;2.63;1.80;;;27.50;47.90;;;;;;5004586;28;20990;-52
2023/07/10 12:54:00;;;;;;;2.37;1.47;;;27.50;48.00;;;;;;4991616;28;20565;-50
2023/07/10 12:56:32;;;;;;;2.27;1.80;;;27.50;48.10;;;;;;4993476;28;20468;-50
2023/07/10 12:59:14;;;;;;;1.97;1.50;;;27.50;48.20;;;;;;5000100;28;20449;-49
2023/07/10 13:01:48;;;;;;;2.50;1.90;;;27.50;48.30;;;;;;4987116;28;20482;-50
2023/07/10 13:04:22;;;;;;;1.53;1.43;;;27.50;48.30;;;;;;4990814;28;20464;-51
2023/07/10 13:07:02;;;;;;;1.90;1.60;;;27.50;48.00;;;;;;4986034;28;20537;-50
2023/07/10 13:09:56;;;;;;;2.67;1.70;;;27.50;48.10;;;;;;4992762;28;20453;-49
2023/07/10 13:12:28;;;;;;;2.00;1.57;;;27.50;48.10;;;;;;4992788;28;20543;-49